createdAt,value
2018-03-11T00:01:18.333Z,9.10
2018-03-11T00:03:46.158Z,9.10
2018-03-11T00:06:13.703Z,9.10
2018-03-11T00:08:41.459Z,9.10
2018-03-11T00:11:09.082Z,9.10
2018-03-11T00:13:37.396Z,9.10
2018-03-11T00:16:05.304Z,9.10
2018-03-11T00:18:32.864Z,9.10
2018-03-11T00:21:00.439Z,9.10
2018-03-11T00:23:27.954Z,9.00
2018-03-11T00:25:56.443Z,9.00
2018-03-11T00:28:24.035Z,9.00
2018-03-11T00:30:51.983Z,9.00
2018-03-11T00:33:19.724Z,9.00
2018-03-11T00:35:47.227Z,9.00
2018-03-11T00:38:14.840Z,9.00
2018-03-11T00:40:42.454Z,9.00
2018-03-11T00:43:09.997Z,9.00
2018-03-11T00:45:37.512Z,9.00
2018-03-11T00:48:05.164Z,8.90
2018-03-11T00:50:33.547Z,8.90
2018-03-11T00:53:01.128Z,8.90
2018-03-11T00:55:28.692Z,8.90
2018-03-11T00:57:56.286Z,8.90
2018-03-11T01:00:23.866Z,8.90
2018-03-11T01:02:53.477Z,8.90
2018-03-11T01:05:21.807Z,8.90
2018-03-11T01:07:49.361Z,8.90
2018-03-11T01:10:16.886Z,8.90
2018-03-11T01:12:45.165Z,8.90
2018-03-11T01:15:14.087Z,8.90
2018-03-11T01:17:41.840Z,8.90
2018-03-11T01:20:09.379Z,9.00
2018-03-11T01:22:37.210Z,9.00
2018-03-11T01:25:04.763Z,9.10
2018-03-11T01:27:32.287Z,9.10
2018-03-11T01:29:59.795Z,9.10
2018-03-11T01:32:27.426Z,9.10
2018-03-11T01:34:54.922Z,9.00
2018-03-11T01:37:23.246Z,9.10
2018-03-11T01:39:50.942Z,9.10
2018-03-11T01:42:18.563Z,9.10
2018-03-11T01:44:46.263Z,9.10
2018-03-11T01:47:13.784Z,9.10
2018-03-11T01:49:41.284Z,9.10
2018-03-11T01:52:08.832Z,9.10
2018-03-11T01:54:36.339Z,9.00
2018-03-11T01:57:03.866Z,9.00
2018-03-11T01:59:31.397Z,9.00
2018-03-11T02:01:58.955Z,8.90
2018-03-11T02:04:26.562Z,8.90
2018-03-11T02:06:54.690Z,8.90
2018-03-11T02:09:22.237Z,8.90
2018-03-11T02:11:49.781Z,8.80
2018-03-11T02:14:17.484Z,8.80
2018-03-11T02:16:44.981Z,8.80
2018-03-11T02:19:13.122Z,8.80
2018-03-11T02:21:41.433Z,8.60
2018-03-11T02:24:09.057Z,8.60
2018-03-11T02:26:36.692Z,8.60
2018-03-11T02:29:04.225Z,8.60
2018-03-11T02:31:31.891Z,8.60
2018-03-11T02:33:59.414Z,8.70
2018-03-11T02:36:26.937Z,8.70
2018-03-11T02:38:54.489Z,8.70
2018-03-11T02:41:22.145Z,8.70
2018-03-11T02:43:49.648Z,8.60
2018-03-11T02:46:17.172Z,8.60
2018-03-11T02:48:45.471Z,8.50
2018-03-11T02:51:13.000Z,8.50
2018-03-11T02:53:40.525Z,8.40
2018-03-11T02:56:08.864Z,8.40
2018-03-11T02:58:36.386Z,8.30
2018-03-11T03:01:04.287Z,8.40
2018-03-11T03:03:31.789Z,8.30
2018-03-11T03:05:59.679Z,8.30
2018-03-11T03:08:27.245Z,8.30
2018-03-11T03:10:55.251Z,8.20
2018-03-11T03:13:23.202Z,8.20
2018-03-11T03:15:50.724Z,8.20
2018-03-11T03:18:18.281Z,8.20
2018-03-11T03:20:46.104Z,8.20
2018-03-11T03:23:14.073Z,8.10
2018-03-11T03:25:41.672Z,8.10
2018-03-11T03:28:09.254Z,8.10
2018-03-11T03:30:36.846Z,8.10
2018-03-11T03:33:04.417Z,8.10
2018-03-11T03:35:31.933Z,8.00
2018-03-11T03:37:59.482Z,8.00
2018-03-11T03:40:27.498Z,8.00
2018-03-11T03:42:55.158Z,8.00
2018-03-11T03:45:22.932Z,8.00
2018-03-11T03:47:50.504Z,8.00
2018-03-11T03:50:18.038Z,8.00
2018-03-11T03:52:45.551Z,7.90
2018-03-11T03:55:13.875Z,7.90
2018-03-11T03:57:41.436Z,7.90
2018-03-11T04:00:08.983Z,7.90
2018-03-11T04:02:36.899Z,7.90
2018-03-11T04:05:04.406Z,7.90
2018-03-11T04:07:32.078Z,7.80
2018-03-11T04:09:59.626Z,7.80
2018-03-11T04:12:27.202Z,7.80
2018-03-11T04:14:54.745Z,7.70
2018-03-11T04:17:22.324Z,7.70
2018-03-11T04:19:49.847Z,7.70
2018-03-11T04:22:18.727Z,7.70
2018-03-11T04:24:46.246Z,7.70
2018-03-11T04:27:13.758Z,7.70
2018-03-11T04:29:42.174Z,7.70
2018-03-11T04:32:09.744Z,7.70
2018-03-11T04:34:37.818Z,7.70
2018-03-11T04:37:05.648Z,7.70
2018-03-11T04:39:33.911Z,7.60
2018-03-11T04:42:01.438Z,7.70
2018-03-11T04:44:28.964Z,7.70
2018-03-11T04:46:56.506Z,7.70
2018-03-11T04:49:24.112Z,7.60
2018-03-11T04:51:51.782Z,7.60
2018-03-11T04:54:20.823Z,7.60
2018-03-11T04:56:48.331Z,7.60
2018-03-11T04:59:16.044Z,7.60
2018-03-11T05:01:43.758Z,7.60
2018-03-11T05:04:11.349Z,7.50
2018-03-11T05:06:39.647Z,7.50
2018-03-11T05:09:07.326Z,7.50
2018-03-11T05:11:35.188Z,7.60
2018-03-11T05:14:02.807Z,7.60
2018-03-11T05:16:30.320Z,7.50
2018-03-11T05:18:57.846Z,7.50
2018-03-11T05:21:26.302Z,7.50
2018-03-11T05:23:54.029Z,7.50
2018-03-11T05:26:21.613Z,7.50
2018-03-11T05:28:49.167Z,7.50
2018-03-11T05:31:16.797Z,7.50
2018-03-11T05:33:44.297Z,7.60
2018-03-11T05:36:11.843Z,7.60
2018-03-11T05:38:39.343Z,7.60
2018-03-11T05:41:07.623Z,7.60
2018-03-11T05:43:35.147Z,7.60
2018-03-11T05:46:02.699Z,7.60
2018-03-11T05:48:30.536Z,7.70
2018-03-11T05:50:58.094Z,7.80
2018-03-11T05:53:25.677Z,7.90
2018-03-11T05:55:54.027Z,8.10
2018-03-11T05:58:21.552Z,8.60
2018-03-11T06:00:49.916Z,9.20
2018-03-11T06:03:17.426Z,9.80
2018-03-11T06:05:45.888Z,10.30
2018-03-11T06:08:14.184Z,11.40
2018-03-11T06:10:41.961Z,11.40
2018-03-11T06:13:09.548Z,11.80
2018-03-11T06:15:37.171Z,12.20
2018-03-11T06:18:06.692Z,12.80
2018-03-11T06:20:34.135Z,12.80
2018-03-11T06:23:01.831Z,13.00
2018-03-11T06:25:29.386Z,13.20
2018-03-11T06:27:57.145Z,13.50
2018-03-11T06:30:24.680Z,13.80
2018-03-11T06:32:52.292Z,13.80
2018-03-11T06:35:19.828Z,13.90
2018-03-11T06:37:47.408Z,14.10
2018-03-11T06:40:14.994Z,14.30
2018-03-11T06:42:43.339Z,14.50
2018-03-11T06:45:10.971Z,14.50
2018-03-11T06:47:38.651Z,14.60
2018-03-11T06:50:06.160Z,14.90
2018-03-11T06:52:34.584Z,15.00
2018-03-11T06:55:02.108Z,15.00
2018-03-11T06:57:29.734Z,15.20
2018-03-11T06:59:57.369Z,15.40
2018-03-11T07:02:24.961Z,15.70
2018-03-11T07:04:52.470Z,15.80
2018-03-11T07:07:20.135Z,16.00
2018-03-11T07:09:47.848Z,16.00
2018-03-11T07:12:15.487Z,16.10
2018-03-11T07:14:43.023Z,16.10
2018-03-11T07:17:10.667Z,16.30
2018-03-11T07:19:39.202Z,16.10
2018-03-11T07:22:06.818Z,16.10
2018-03-11T07:24:34.308Z,16.20
2018-03-11T07:27:01.873Z,16.30
2018-03-11T07:29:29.460Z,16.50
2018-03-11T07:31:57.173Z,16.70
2018-03-11T07:34:24.898Z,16.90
2018-03-11T07:36:52.433Z,16.70
2018-03-11T07:39:19.996Z,16.50
2018-03-11T07:41:48.371Z,16.60
2018-03-11T07:44:15.927Z,16.40
2018-03-11T07:46:43.591Z,16.50
2018-03-11T07:49:11.492Z,16.50
2018-03-11T07:51:38.993Z,16.50
2018-03-11T07:54:06.580Z,16.20
2018-03-11T07:56:34.112Z,16.00
2018-03-11T07:59:01.676Z,15.90
2018-03-11T08:01:29.645Z,15.80
2018-03-11T08:03:57.292Z,15.70
2018-03-11T08:06:24.792Z,15.40
2018-03-11T08:08:52.729Z,15.40
2018-03-11T08:11:20.258Z,15.00
2018-03-11T08:13:47.812Z,15.10
2018-03-11T08:16:15.347Z,15.30
2018-03-11T08:18:42.911Z,15.30
2018-03-11T08:21:10.544Z,15.30
2018-03-11T08:23:38.160Z,15.40
2018-03-11T08:26:05.710Z,15.50
2018-03-11T08:28:33.432Z,15.40
2018-03-11T08:31:00.938Z,15.50
2018-03-11T08:33:29.227Z,15.80
2018-03-11T08:35:57.161Z,15.70
2018-03-11T08:38:24.708Z,15.80
2018-03-11T08:40:52.755Z,15.80
2018-03-11T08:43:20.405Z,15.70
2018-03-11T08:45:48.045Z,15.70
2018-03-11T08:48:16.888Z,15.60
2018-03-11T08:50:44.404Z,15.60
2018-03-11T08:53:12.100Z,15.40
2018-03-11T08:55:39.658Z,15.30
2018-03-11T08:58:07.313Z,15.40
2018-03-11T09:00:34.837Z,15.30
2018-03-11T09:03:02.405Z,14.90
2018-03-11T09:05:29.956Z,15.00
2018-03-11T09:07:57.495Z,15.10
2018-03-11T09:10:25.342Z,15.20
2018-03-11T09:12:53.482Z,15.10
2018-03-11T09:15:21.043Z,15.00
2018-03-11T09:17:48.561Z,15.00
2018-03-11T09:20:17.085Z,15.10
2018-03-11T09:22:44.748Z,15.00
2018-03-11T09:25:12.350Z,15.10
2018-03-11T09:27:40.459Z,15.20
2018-03-11T09:30:08.348Z,15.40
2018-03-11T09:32:36.178Z,15.60
2018-03-11T09:35:03.729Z,16.00
2018-03-11T09:37:31.313Z,16.40
2018-03-11T09:39:59.818Z,16.40
2018-03-11T09:42:27.351Z,16.30
2018-03-11T09:44:54.920Z,16.10
2018-03-11T09:47:22.571Z,15.90
2018-03-11T09:49:50.956Z,15.60
2018-03-11T09:52:18.859Z,15.60
2018-03-11T09:54:46.414Z,15.60
2018-03-11T09:57:13.981Z,15.60
2018-03-11T09:59:41.527Z,15.50
2018-03-11T10:02:09.096Z,15.40
2018-03-11T10:04:36.668Z,15.30
2018-03-11T10:07:04.285Z,15.30
2018-03-11T10:09:31.900Z,15.30
2018-03-11T10:11:59.622Z,15.30
2018-03-11T10:14:27.320Z,15.50
2018-03-11T10:16:54.924Z,15.50
2018-03-11T10:19:22.722Z,15.70
2018-03-11T10:21:50.460Z,15.80
2018-03-11T10:24:18.160Z,15.80
2018-03-11T10:26:45.659Z,15.70
2018-03-11T10:29:15.088Z,15.50
2018-03-11T10:31:42.650Z,15.40
2018-03-11T10:34:10.242Z,15.60
2018-03-11T10:36:37.739Z,15.70
2018-03-11T10:39:05.328Z,15.60
2018-03-11T10:41:32.874Z,15.70
2018-03-11T10:44:00.518Z,15.80
2018-03-11T10:46:29.063Z,15.70
2018-03-11T10:48:56.636Z,15.80
2018-03-11T10:51:24.224Z,15.80
2018-03-11T10:53:52.155Z,15.90
2018-03-11T10:56:19.795Z,16.10
2018-03-11T10:58:47.314Z,16.10
2018-03-11T11:01:14.854Z,16.10
2018-03-11T11:03:48.347Z,16.30
2018-03-11T11:06:15.928Z,16.40
2018-03-11T11:08:43.851Z,16.50
2018-03-11T11:11:11.521Z,16.60
2018-03-11T11:13:39.104Z,16.80
2018-03-11T11:16:07.020Z,17.10
2018-03-11T11:18:34.687Z,17.30
2018-03-11T11:21:02.284Z,17.30
2018-03-11T11:23:29.783Z,17.50
2018-03-11T11:25:57.533Z,17.80
2018-03-11T11:28:25.052Z,18.10
2018-03-11T11:30:52.637Z,18.20
2018-03-11T11:33:20.182Z,18.10
2018-03-11T11:35:48.183Z,18.20
2018-03-11T11:38:16.357Z,18.10
2018-03-11T11:40:43.911Z,18.30
2018-03-11T11:43:11.936Z,18.30
2018-03-11T11:45:39.471Z,18.40
2018-03-11T11:48:07.373Z,18.50
2018-03-11T11:50:34.973Z,18.40
2018-03-11T11:53:04.006Z,18.30
2018-03-11T11:55:31.753Z,18.40
2018-03-11T11:57:59.286Z,18.50
2018-03-11T12:00:26.936Z,18.50
2018-03-11T12:02:54.581Z,18.60
2018-03-11T12:05:22.183Z,18.70
2018-03-11T12:07:49.815Z,18.40
2018-03-11T12:10:17.633Z,17.90
2018-03-11T12:12:45.458Z,17.50
2018-03-11T12:15:13.977Z,16.90
2018-03-11T12:17:42.456Z,16.80
2018-03-11T12:20:14.245Z,16.70
2018-03-11T12:22:41.805Z,16.60
2018-03-11T12:25:09.393Z,16.50
2018-03-11T12:27:37.216Z,16.40
2018-03-11T12:30:05.036Z,16.30
2018-03-11T12:32:32.603Z,16.20
2018-03-11T12:35:00.279Z,16.10
2018-03-11T12:37:28.704Z,16.10
2018-03-11T12:39:57.882Z,16.10
2018-03-11T12:42:25.781Z,16.00
2018-03-11T12:44:53.765Z,16.10
2018-03-11T12:47:21.348Z,16.20
2018-03-11T12:49:48.953Z,16.30
2018-03-11T12:52:16.556Z,16.40
2018-03-11T12:54:44.956Z,16.60
2018-03-11T12:57:13.292Z,16.80
2018-03-11T12:59:40.849Z,16.80
2018-03-11T13:02:08.638Z,17.10
2018-03-11T13:04:36.171Z,17.40
2018-03-11T13:07:03.865Z,17.30
2018-03-11T13:09:31.400Z,17.30
2018-03-11T13:11:59.114Z,17.40
2018-03-11T13:14:27.465Z,17.40
2018-03-11T13:16:55.023Z,17.40
2018-03-11T13:19:22.695Z,17.60
2018-03-11T13:21:50.265Z,17.70
2018-03-11T13:24:17.972Z,17.80
2018-03-11T13:26:45.544Z,17.70
2018-03-11T13:29:13.205Z,17.70
2018-03-11T13:31:40.806Z,17.80
2018-03-11T13:34:14.228Z,17.80
2018-03-11T13:36:41.965Z,17.80
2018-03-11T13:39:21.435Z,17.90
2018-03-11T13:41:49.080Z,17.90
2018-03-11T13:44:16.628Z,17.90
2018-03-11T13:46:56.880Z,17.80
2018-03-11T13:49:25.978Z,17.70
2018-03-11T13:52:05.317Z,17.70
2018-03-11T13:54:33.289Z,17.70
2018-03-11T13:57:12.935Z,17.60
2018-03-11T13:59:40.547Z,17.70
2018-03-11T14:02:08.264Z,17.80
2018-03-11T14:04:35.914Z,17.80
2018-03-11T14:07:03.474Z,17.70
2018-03-11T14:09:31.044Z,17.80
2018-03-11T14:11:58.592Z,17.80
2018-03-11T14:14:26.488Z,17.80
2018-03-11T14:16:54.042Z,17.80
2018-03-11T14:19:21.587Z,17.80
2018-03-11T14:21:49.144Z,17.60
2018-03-11T14:24:16.966Z,17.50
2018-03-11T14:26:44.565Z,17.40
2018-03-11T14:29:12.169Z,17.40
2018-03-11T14:31:39.786Z,17.40
2018-03-11T14:34:07.448Z,17.30
2018-03-11T14:36:35.009Z,17.30
2018-03-11T14:39:02.737Z,17.20
2018-03-11T14:41:30.302Z,17.20
2018-03-11T14:43:57.973Z,17.20
2018-03-11T14:46:25.529Z,17.20
2018-03-11T14:48:53.119Z,17.20
2018-03-11T14:51:20.687Z,17.20
2018-03-11T14:53:48.573Z,17.20
2018-03-11T14:56:16.154Z,17.20
2018-03-11T14:58:44.482Z,17.20
2018-03-11T15:01:11.996Z,17.30
2018-03-11T15:03:40.272Z,17.20
2018-03-11T15:06:07.983Z,17.10
2018-03-11T15:08:36.321Z,17.10
2018-03-11T15:11:04.110Z,17.10
2018-03-11T15:13:31.683Z,17.00
2018-03-11T15:15:59.213Z,17.00
2018-03-11T15:18:26.766Z,17.00
2018-03-11T15:20:54.617Z,16.90
2018-03-11T15:23:22.957Z,16.90
2018-03-11T15:25:51.245Z,16.90
2018-03-11T15:28:18.882Z,16.90
2018-03-11T15:30:46.512Z,16.80
2018-03-11T15:33:14.247Z,16.80
2018-03-11T15:35:43.739Z,16.80
2018-03-11T15:38:12.814Z,16.80
2018-03-11T15:40:40.537Z,16.80
2018-03-11T15:43:08.046Z,16.70
2018-03-11T15:45:35.580Z,16.60
2018-03-11T15:48:03.109Z,16.60
2018-03-11T15:50:31.005Z,16.60
2018-03-11T15:52:59.029Z,16.50
2018-03-11T15:55:27.390Z,16.40
2018-03-11T15:57:56.167Z,16.30
2018-03-11T16:00:24.206Z,16.30
2018-03-11T16:02:51.867Z,16.20
2018-03-11T16:05:19.485Z,16.20
2018-03-11T16:07:48.198Z,16.10
2018-03-11T16:10:15.782Z,16.10
2018-03-11T16:12:43.677Z,16.10
2018-03-11T16:15:12.088Z,16.00
2018-03-11T16:17:39.629Z,15.90
2018-03-11T16:20:07.979Z,15.90
2018-03-11T16:22:35.502Z,15.80
2018-03-11T16:25:03.495Z,15.80
2018-03-11T16:27:31.096Z,15.70
2018-03-11T16:29:58.972Z,15.70
2018-03-11T16:32:27.486Z,15.60
2018-03-11T16:34:55.040Z,15.60
2018-03-11T16:37:22.720Z,15.60
2018-03-11T16:39:50.672Z,15.50
2018-03-11T16:42:18.189Z,15.40
2018-03-11T16:44:45.777Z,15.40
2018-03-11T16:47:14.566Z,15.30
2018-03-11T16:49:43.050Z,15.20
2018-03-11T16:52:12.305Z,15.20
2018-03-11T16:54:39.925Z,15.20
2018-03-11T16:57:07.602Z,15.20
2018-03-11T16:59:35.399Z,15.10
2018-03-11T17:02:02.929Z,15.00
2018-03-11T17:04:30.497Z,15.00
2018-03-11T17:06:58.054Z,14.90
2018-03-11T17:09:25.664Z,14.90
2018-03-11T17:11:53.368Z,14.90
2018-03-11T17:14:20.906Z,14.90
2018-03-11T17:16:48.504Z,14.90
2018-03-11T17:19:16.096Z,14.90
2018-03-11T17:21:44.650Z,14.90
2018-03-11T17:24:12.197Z,14.80
2018-03-11T17:26:39.860Z,14.90
2018-03-11T17:29:07.588Z,14.90
2018-03-11T17:31:38.201Z,14.90
2018-03-11T17:34:08.913Z,14.80
2018-03-11T17:36:36.823Z,14.80
2018-03-11T17:39:05.255Z,14.70
2018-03-11T17:41:33.160Z,14.70
2018-03-11T17:44:00.726Z,14.70
2018-03-11T17:46:28.302Z,14.70
2018-03-11T17:48:56.034Z,14.60
2018-03-11T17:51:23.580Z,14.60
2018-03-11T17:53:51.105Z,14.60
2018-03-11T17:56:18.871Z,14.60
2018-03-11T17:58:46.491Z,14.60
2018-03-11T18:01:14.167Z,14.60
2018-03-11T18:03:41.737Z,14.60
2018-03-11T18:06:09.281Z,14.50
2018-03-11T18:08:37.607Z,14.40
2018-03-11T18:11:05.370Z,14.40
2018-03-11T18:13:32.947Z,14.30
2018-03-11T18:16:00.480Z,14.30
2018-03-11T18:18:28.128Z,14.20
2018-03-11T18:20:56.417Z,14.20
2018-03-11T18:23:24.487Z,14.10
2018-03-11T18:25:55.509Z,14.10
2018-03-11T18:28:23.722Z,14.10
2018-03-11T18:30:51.320Z,14.10
2018-03-11T18:33:19.664Z,14.00
2018-03-11T18:35:48.217Z,14.00
2018-03-11T18:38:15.743Z,14.00
2018-03-11T18:40:44.439Z,13.90
2018-03-11T18:43:12.756Z,13.90
2018-03-11T18:45:40.329Z,13.80
2018-03-11T18:48:08.116Z,13.90
2018-03-11T18:50:35.761Z,13.80
2018-03-11T18:53:03.354Z,13.80
2018-03-11T18:55:30.918Z,13.80
2018-03-11T18:57:58.572Z,13.80
2018-03-11T19:00:26.123Z,13.80
2018-03-11T19:02:53.693Z,13.70
2018-03-11T19:05:21.287Z,13.70
2018-03-11T19:07:48.878Z,13.70
2018-03-11T19:10:16.416Z,13.70
2018-03-11T19:12:43.938Z,13.60
2018-03-11T19:15:11.568Z,13.60
2018-03-11T19:17:39.135Z,13.60
2018-03-11T19:20:07.625Z,13.50
2018-03-11T19:22:35.440Z,13.50
2018-03-11T19:25:03.097Z,13.50
2018-03-11T19:27:30.775Z,13.40
2018-03-11T19:29:59.460Z,13.40
2018-03-11T19:32:27.247Z,13.30
2018-03-11T19:34:55.178Z,13.30
2018-03-11T19:37:23.564Z,13.20
2018-03-11T19:39:51.274Z,13.20
2018-03-11T19:42:19.125Z,13.20
2018-03-11T19:44:47.057Z,13.20
2018-03-11T19:47:14.789Z,13.10
2018-03-11T19:49:42.397Z,13.10
2018-03-11T19:52:10.278Z,13.10
2018-03-11T19:54:37.883Z,13.10
2018-03-11T19:57:05.697Z,13.00
2018-03-11T19:59:33.360Z,13.00
2018-03-11T20:02:01.424Z,13.00
2018-03-11T20:04:29.214Z,12.90
2018-03-11T20:06:56.768Z,12.90
2018-03-11T20:09:24.374Z,12.90
2018-03-11T20:11:52.064Z,12.90
2018-03-11T20:14:19.741Z,12.90
2018-03-11T20:16:47.398Z,12.90
2018-03-11T20:19:14.941Z,12.80
2018-03-11T20:21:42.503Z,12.80
2018-03-11T20:24:10.091Z,12.80
2018-03-11T20:26:37.633Z,12.80
2018-03-11T20:29:05.587Z,12.70
2018-03-11T20:31:33.431Z,12.70
2018-03-11T20:34:01.629Z,12.70
2018-03-11T20:36:30.057Z,12.70
2018-03-11T20:38:57.648Z,12.60
2018-03-11T20:41:25.377Z,12.60
2018-03-11T20:43:53.242Z,12.60
2018-03-11T20:46:21.098Z,12.60
2018-03-11T20:48:48.774Z,12.60
2018-03-11T20:51:16.641Z,12.60
2018-03-11T20:53:45.113Z,12.60
2018-03-11T20:56:12.891Z,12.60
2018-03-11T20:58:40.450Z,12.50
2018-03-11T21:01:08.057Z,12.50
2018-03-11T21:03:36.414Z,12.40
2018-03-11T21:06:04.253Z,12.40
2018-03-11T21:08:31.899Z,12.40
2018-03-11T21:10:59.580Z,12.30
2018-03-11T21:13:27.353Z,12.30
2018-03-11T21:15:54.927Z,12.30
2018-03-11T21:18:22.524Z,12.30
2018-03-11T21:20:50.224Z,12.30
2018-03-11T21:23:17.784Z,12.30
2018-03-11T21:25:46.165Z,12.20
2018-03-11T21:28:13.730Z,12.20
2018-03-11T21:30:41.470Z,12.20
2018-03-11T21:33:09.384Z,12.20
2018-03-11T21:35:37.010Z,12.20
2018-03-11T21:38:05.394Z,12.10
2018-03-11T21:40:36.678Z,12.10
2018-03-11T21:43:06.753Z,12.10
2018-03-11T21:45:35.650Z,12.10
2018-03-11T21:48:09.768Z,12.10
2018-03-11T21:50:38.878Z,12.10
2018-03-11T21:53:10.079Z,12.10
2018-03-11T21:55:39.756Z,12.10
2018-03-11T21:58:07.890Z,12.10
2018-03-11T22:00:40.569Z,12.00
2018-03-11T22:03:09.088Z,12.00
2018-03-11T22:05:38.604Z,12.00
2018-03-11T22:08:07.054Z,11.90
2018-03-11T22:10:36.072Z,11.90
2018-03-11T22:13:04.036Z,11.90
2018-03-11T22:15:32.964Z,11.80
2018-03-11T22:18:03.533Z,11.90
2018-03-11T22:20:31.994Z,11.80
2018-03-11T22:23:00.719Z,11.80
2018-03-11T22:25:29.036Z,11.80
2018-03-11T22:27:56.672Z,11.80
2018-03-11T22:30:24.287Z,11.80
2018-03-11T22:32:52.107Z,11.70
2018-03-11T22:35:19.633Z,11.70
2018-03-11T22:37:47.171Z,11.70
2018-03-11T22:40:15.259Z,11.60
2018-03-11T22:42:43.112Z,11.60
2018-03-11T22:45:11.248Z,11.60
2018-03-11T22:47:39.562Z,11.50
2018-03-11T22:50:07.061Z,11.50
2018-03-11T22:52:34.664Z,11.50
2018-03-11T22:55:02.209Z,11.40
2018-03-11T22:57:30.531Z,11.40
2018-03-11T22:59:58.057Z,11.40
2018-03-11T23:02:25.591Z,11.40
2018-03-11T23:04:53.175Z,11.40
2018-03-11T23:07:20.753Z,11.40
2018-03-11T23:09:48.308Z,11.40
2018-03-11T23:12:15.876Z,11.30
2018-03-11T23:14:43.412Z,11.30
2018-03-11T23:17:11.004Z,11.30
2018-03-11T23:19:38.523Z,11.30
2018-03-11T23:22:06.119Z,11.30
2018-03-11T23:24:33.635Z,11.20
2018-03-11T23:27:02.261Z,11.20
2018-03-11T23:29:29.794Z,11.20
2018-03-11T23:31:57.896Z,11.20
2018-03-11T23:34:25.698Z,11.20
2018-03-11T23:36:53.448Z,11.20
2018-03-11T23:39:20.940Z,11.20
2018-03-11T23:41:49.462Z,11.20
2018-03-11T23:44:17.424Z,11.20
2018-03-11T23:46:45.203Z,11.10
2018-03-11T23:49:12.715Z,11.20
2018-03-11T23:51:40.226Z,11.10
2018-03-11T23:54:08.342Z,11.10
2018-03-11T23:56:35.879Z,11.10
2018-03-11T23:59:03.402Z,11.10
